sensor_id;sensor_type;location;lat;lon;timestamp;P1;durP1;ratioP1;P2;durP2;ratioP2
5650;SDS011;40241;52.684;9.758;2022-10-31T00:00:05;7.27;;;5.50;;
5650;SDS011;40241;52.684;9.758;2022-10-31T00:02:33;10.53;;;6.20;;
5650;SDS011;40241;52.684;9.758;2022-10-31T00:04:58;7.80;;;5.80;;
5650;SDS011;40241;52.684;9.758;2022-10-31T00:07:24;8.87;;;5.70;;
5650;SDS011;40241;52.684;9.758;2022-10-31T00:09:49;9.07;;;6.97;;
5650;SDS011;40241;52.684;9.758;2022-10-31T00:12:15;8.70;;;6.07;;
5650;SDS011;40241;52.684;9.758;2022-10-31T00:14:40;9.10;;;5.70;;
5650;SDS011;40241;52.684;9.758;2022-10-31T00:17:05;9.30;;;5.50;;
5650;SDS011;40241;52.684;9.758;2022-10-31T00:19:31;8.30;;;5.53;;
5650;SDS011;40241;52.684;9.758;2022-10-31T00:21:56;10.57;;;5.90;;
5650;SDS011;40241;52.684;9.758;2022-10-31T00:24:22;8.30;;;5.83;;
5650;SDS011;40241;52.684;9.758;2022-10-31T00:26:47;7.63;;;5.43;;
5650;SDS011;40241;52.684;9.758;2022-10-31T00:29:12;7.77;;;5.67;;
5650;SDS011;40241;52.684;9.758;2022-10-31T00:31:38;6.17;;;5.53;;
5650;SDS011;40241;52.684;9.758;2022-10-31T00:34:03;6.07;;;4.80;;
5650;SDS011;40241;52.684;9.758;2022-10-31T00:36:29;9.77;;;5.60;;
5650;SDS011;40241;52.684;9.758;2022-10-31T00:38:54;7.50;;;5.77;;
5650;SDS011;40241;52.684;9.758;2022-10-31T00:41:20;9.33;;;5.57;;
5650;SDS011;40241;52.684;9.758;2022-10-31T00:43:45;8.27;;;5.30;;
5650;SDS011;40241;52.684;9.758;2022-10-31T00:46:12;7.80;;;5.57;;
5650;SDS011;40241;52.684;9.758;2022-10-31T00:48:38;20.83;;;6.43;;
5650;SDS011;40241;52.684;9.758;2022-10-31T00:51:03;6.97;;;5.63;;
5650;SDS011;40241;52.684;9.758;2022-10-31T00:53:29;16.27;;;7.10;;
5650;SDS011;40241;52.684;9.758;2022-10-31T00:55:54;10.40;;;6.20;;
5650;SDS011;40241;52.684;9.758;2022-10-31T00:58:20;11.33;;;5.80;;
5650;SDS011;40241;52.684;9.758;2022-10-31T01:00:48;13.60;;;6.33;;
5650;SDS011;40241;52.684;9.758;2022-10-31T01:03:29;12.93;;;5.87;;
5650;SDS011;40241;52.684;9.758;2022-10-31T01:08:33;16.43;;;6.40;;
5650;SDS011;40241;52.684;9.758;2022-10-31T01:11:16;11.47;;;6.77;;
5650;SDS011;40241;52.684;9.758;2022-10-31T01:13:43;10.77;;;6.43;;
5650;SDS011;40241;52.684;9.758;2022-10-31T01:16:14;10.83;;;5.60;;
5650;SDS011;40241;52.684;9.758;2022-10-31T01:18:41;8.10;;;5.80;;
5650;SDS011;40241;52.684;9.758;2022-10-31T01:21:07;9.63;;;6.03;;
5650;SDS011;40241;52.684;9.758;2022-10-31T01:23:35;7.23;;;5.33;;
5650;SDS011;40241;52.684;9.758;2022-10-31T01:26:11;12.10;;;6.97;;
5650;SDS011;40241;52.684;9.758;2022-10-31T01:28:47;13.70;;;6.20;;
5650;SDS011;40241;52.684;9.758;2022-10-31T01:31:22;12.37;;;6.80;;
5650;SDS011;40241;52.684;9.758;2022-10-31T01:33:48;7.00;;;5.40;;
5650;SDS011;40241;52.684;9.758;2022-10-31T01:36:24;8.70;;;5.77;;
5650;SDS011;40241;52.684;9.758;2022-10-31T01:38:53;14.90;;;7.00;;
5650;SDS011;40241;52.684;9.758;2022-10-31T01:41:22;11.90;;;6.47;;
5650;SDS011;40241;52.684;9.758;2022-10-31T01:46:25;12.53;;;6.80;;
5650;SDS011;40241;52.684;9.758;2022-10-31T01:49:00;11.80;;;8.23;;
5650;SDS011;40241;52.684;9.758;2022-10-31T01:51:30;13.90;;;7.77;;
5650;SDS011;40241;52.684;9.758;2022-10-31T01:54:04;16.07;;;9.10;;
5650;SDS011;40241;52.684;9.758;2022-10-31T01:56:34;11.17;;;8.57;;
5650;SDS011;40241;52.684;9.758;2022-10-31T01:59:03;14.47;;;9.17;;
5650;SDS011;40241;52.684;9.758;2022-10-31T02:01:33;16.03;;;8.60;;
5650;SDS011;40241;52.684;9.758;2022-10-31T02:04:00;13.23;;;9.27;;
5650;SDS011;40241;52.684;9.758;2022-10-31T02:06:27;17.20;;;10.20;;
5650;SDS011;40241;52.684;9.758;2022-10-31T02:08:57;13.77;;;9.80;;
5650;SDS011;40241;52.684;9.758;2022-10-31T02:11:24;16.80;;;10.37;;
5650;SDS011;40241;52.684;9.758;2022-10-31T02:13:50;15.53;;;10.90;;
5650;SDS011;40241;52.684;9.758;2022-10-31T02:16:16;17.23;;;10.77;;
5650;SDS011;40241;52.684;9.758;2022-10-31T02:18:41;15.23;;;10.57;;
5650;SDS011;40241;52.684;9.758;2022-10-31T02:24:15;14.57;;;10.60;;
5650;SDS011;40241;52.684;9.758;2022-10-31T02:27:07;20.80;;;10.27;;
5650;SDS011;40241;52.684;9.758;2022-10-31T02:40:44;16.27;;;10.13;;
5650;SDS011;40241;52.684;9.758;2022-10-31T02:46:19;19.20;;;11.40;;
5650;SDS011;40241;52.684;9.758;2022-10-31T02:48:57;18.37;;;11.90;;
5650;SDS011;40241;52.684;9.758;2022-10-31T02:51:27;20.87;;;10.90;;
5650;SDS011;40241;52.684;9.758;2022-10-31T02:53:53;18.03;;;11.60;;
5650;SDS011;40241;52.684;9.758;2022-10-31T02:56:19;17.60;;;11.37;;
5650;SDS011;40241;52.684;9.758;2022-10-31T02:58:46;22.63;;;11.50;;
5650;SDS011;40241;52.684;9.758;2022-10-31T03:06:30;25.13;;;12.63;;
5650;SDS011;40241;52.684;9.758;2022-10-31T03:12:01;16.50;;;10.20;;
5650;SDS011;40241;52.684;9.758;2022-10-31T03:18:05;16.70;;;12.07;;
5650;SDS011;40241;52.684;9.758;2022-10-31T03:20:42;20.37;;;10.57;;
5650;SDS011;40241;52.684;9.758;2022-10-31T03:23:14;17.67;;;11.47;;
5650;SDS011;40241;52.684;9.758;2022-10-31T03:25:41;17.40;;;11.27;;
5650;SDS011;40241;52.684;9.758;2022-10-31T03:28:09;16.83;;;11.97;;
5650;SDS011;40241;52.684;9.758;2022-10-31T03:30:38;22.50;;;11.97;;
5650;SDS011;40241;52.684;9.758;2022-10-31T03:33:08;25.47;;;12.23;;
5650;SDS011;40241;52.684;9.758;2022-10-31T03:35:37;19.20;;;12.10;;
5650;SDS011;40241;52.684;9.758;2022-10-31T03:38:08;18.00;;;11.40;;
5650;SDS011;40241;52.684;9.758;2022-10-31T03:40:34;20.90;;;11.40;;
5650;SDS011;40241;52.684;9.758;2022-10-31T03:43:07;17.47;;;12.30;;
5650;SDS011;40241;52.684;9.758;2022-10-31T03:45:36;19.43;;;11.27;;
5650;SDS011;40241;52.684;9.758;2022-10-31T03:48:07;19.40;;;11.37;;
5650;SDS011;40241;52.684;9.758;2022-10-31T03:50:37;19.60;;;11.63;;
5650;SDS011;40241;52.684;9.758;2022-10-31T03:53:15;21.47;;;12.80;;
5650;SDS011;40241;52.684;9.758;2022-10-31T03:55:58;21.63;;;11.73;;
5650;SDS011;40241;52.684;9.758;2022-10-31T03:58:28;19.50;;;11.10;;
5650;SDS011;40241;52.684;9.758;2022-10-31T04:00:59;17.50;;;12.60;;
5650;SDS011;40241;52.684;9.758;2022-10-31T04:03:29;21.17;;;12.43;;
5650;SDS011;40241;52.684;9.758;2022-10-31T04:06:00;19.73;;;11.43;;
5650;SDS011;40241;52.684;9.758;2022-10-31T04:08:30;21.13;;;12.60;;
5650;SDS011;40241;52.684;9.758;2022-10-31T04:10:58;18.73;;;12.50;;
5650;SDS011;40241;52.684;9.758;2022-10-31T04:13:26;20.47;;;12.67;;
5650;SDS011;40241;52.684;9.758;2022-10-31T04:15:55;17.03;;;11.70;;
5650;SDS011;40241;52.684;9.758;2022-10-31T04:18:24;24.77;;;12.53;;
5650;SDS011;40241;52.684;9.758;2022-10-31T04:20:58;25.83;;;12.00;;
5650;SDS011;40241;52.684;9.758;2022-10-31T04:23:29;18.03;;;12.30;;
5650;SDS011;40241;52.684;9.758;2022-10-31T04:25:56;25.33;;;14.00;;
5650;SDS011;40241;52.684;9.758;2022-10-31T04:28:21;20.03;;;13.67;;
5650;SDS011;40241;52.684;9.758;2022-10-31T04:30:47;20.00;;;11.47;;
5650;SDS011;40241;52.684;9.758;2022-10-31T04:33:13;20.20;;;12.50;;
5650;SDS011;40241;52.684;9.758;2022-10-31T04:35:38;30.90;;;12.40;;
5650;SDS011;40241;52.684;9.758;2022-10-31T04:38:04;18.63;;;11.90;;
5650;SDS011;40241;52.684;9.758;2022-10-31T04:40:30;24.50;;;13.07;;
5650;SDS011;40241;52.684;9.758;2022-10-31T04:42:55;20.57;;;13.20;;
5650;SDS011;40241;52.684;9.758;2022-10-31T04:45:21;19.80;;;12.30;;
5650;SDS011;40241;52.684;9.758;2022-10-31T04:47:46;19.23;;;11.23;;
5650;SDS011;40241;52.684;9.758;2022-10-31T04:50:12;18.73;;;11.90;;
5650;SDS011;40241;52.684;9.758;2022-10-31T04:52:41;20.73;;;11.97;;
5650;SDS011;40241;52.684;9.758;2022-10-31T04:55:07;17.43;;;11.40;;
5650;SDS011;40241;52.684;9.758;2022-10-31T04:57:43;18.80;;;11.57;;
5650;SDS011;40241;52.684;9.758;2022-10-31T05:00:13;17.30;;;10.90;;
5650;SDS011;40241;52.684;9.758;2022-10-31T05:02:47;22.43;;;14.47;;
5650;SDS011;40241;52.684;9.758;2022-10-31T05:05:14;20.17;;;11.87;;
5650;SDS011;40241;52.684;9.758;2022-10-31T05:07:41;19.47;;;12.73;;
5650;SDS011;40241;52.684;9.758;2022-10-31T05:10:09;21.60;;;12.07;;
5650;SDS011;40241;52.684;9.758;2022-10-31T05:12:36;26.60;;;13.57;;
5650;SDS011;40241;52.684;9.758;2022-10-31T05:15:02;18.00;;;11.63;;
5650;SDS011;40241;52.684;9.758;2022-10-31T05:17:28;18.17;;;12.50;;
5650;SDS011;40241;52.684;9.758;2022-10-31T05:19:53;17.50;;;11.87;;
5650;SDS011;40241;52.684;9.758;2022-10-31T05:22:19;24.90;;;12.40;;
5650;SDS011;40241;52.684;9.758;2022-10-31T05:24:44;20.13;;;12.60;;
5650;SDS011;40241;52.684;9.758;2022-10-31T05:27:10;19.83;;;12.20;;
5650;SDS011;40241;52.684;9.758;2022-10-31T05:29:35;21.20;;;12.07;;
5650;SDS011;40241;52.684;9.758;2022-10-31T05:32:00;20.33;;;12.80;;
5650;SDS011;40241;52.684;9.758;2022-10-31T05:34:26;20.20;;;12.70;;
5650;SDS011;40241;52.684;9.758;2022-10-31T05:36:51;16.80;;;12.07;;
5650;SDS011;40241;52.684;9.758;2022-10-31T05:39:17;25.30;;;12.57;;
5650;SDS011;40241;52.684;9.758;2022-10-31T05:41:42;24.27;;;12.80;;
5650;SDS011;40241;52.684;9.758;2022-10-31T05:44:08;20.73;;;12.83;;
5650;SDS011;40241;52.684;9.758;2022-10-31T05:46:33;18.57;;;11.03;;
5650;SDS011;40241;52.684;9.758;2022-10-31T05:48:59;20.57;;;11.60;;
5650;SDS011;40241;52.684;9.758;2022-10-31T05:51:24;21.93;;;11.47;;
5650;SDS011;40241;52.684;9.758;2022-10-31T05:53:49;18.40;;;11.37;;
5650;SDS011;40241;52.684;9.758;2022-10-31T05:56:15;20.10;;;12.23;;
5650;SDS011;40241;52.684;9.758;2022-10-31T05:58:40;20.20;;;12.30;;
5650;SDS011;40241;52.684;9.758;2022-10-31T06:01:06;22.40;;;12.17;;
5650;SDS011;40241;52.684;9.758;2022-10-31T06:03:31;17.43;;;11.07;;
5650;SDS011;40241;52.684;9.758;2022-10-31T06:05:57;18.57;;;11.80;;
5650;SDS011;40241;52.684;9.758;2022-10-31T06:08:22;17.97;;;11.60;;
5650;SDS011;40241;52.684;9.758;2022-10-31T06:10:48;14.40;;;10.10;;
5650;SDS011;40241;52.684;9.758;2022-10-31T06:13:13;10.70;;;8.83;;
5650;SDS011;40241;52.684;9.758;2022-10-31T06:15:39;12.90;;;8.87;;
5650;SDS011;40241;52.684;9.758;2022-10-31T06:18:06;15.00;;;8.50;;
5650;SDS011;40241;52.684;9.758;2022-10-31T06:20:31;12.53;;;9.47;;
5650;SDS011;40241;52.684;9.758;2022-10-31T06:22:57;17.33;;;9.43;;
5650;SDS011;40241;52.684;9.758;2022-10-31T06:25:24;15.47;;;10.07;;
5650;SDS011;40241;52.684;9.758;2022-10-31T06:27:50;11.30;;;8.13;;
5650;SDS011;40241;52.684;9.758;2022-10-31T06:30:15;8.97;;;6.13;;
5650;SDS011;40241;52.684;9.758;2022-10-31T06:32:41;6.17;;;5.57;;
5650;SDS011;40241;52.684;9.758;2022-10-31T06:35:06;7.20;;;6.13;;
5650;SDS011;40241;52.684;9.758;2022-10-31T06:37:32;9.27;;;6.17;;
5650;SDS011;40241;52.684;9.758;2022-10-31T06:39:57;12.37;;;7.27;;
5650;SDS011;40241;52.684;9.758;2022-10-31T06:42:22;11.03;;;7.60;;
5650;SDS011;40241;52.684;9.758;2022-10-31T06:44:48;12.63;;;7.00;;
5650;SDS011;40241;52.684;9.758;2022-10-31T06:47:13;14.77;;;7.67;;
5650;SDS011;40241;52.684;9.758;2022-10-31T06:49:39;12.67;;;8.30;;
5650;SDS011;40241;52.684;9.758;2022-10-31T06:52:04;21.27;;;9.63;;
5650;SDS011;40241;52.684;9.758;2022-10-31T06:54:30;17.30;;;9.30;;
5650;SDS011;40241;52.684;9.758;2022-10-31T06:56:55;18.97;;;10.00;;
5650;SDS011;40241;52.684;9.758;2022-10-31T06:59:21;15.27;;;9.30;;
5650;SDS011;40241;52.684;9.758;2022-10-31T07:01:46;14.77;;;9.63;;
5650;SDS011;40241;52.684;9.758;2022-10-31T07:04:12;15.50;;;9.50;;
5650;SDS011;40241;52.684;9.758;2022-10-31T07:06:38;17.80;;;9.73;;
5650;SDS011;40241;52.684;9.758;2022-10-31T07:09:03;14.73;;;9.47;;
5650;SDS011;40241;52.684;9.758;2022-10-31T07:11:29;15.97;;;8.47;;
5650;SDS011;40241;52.684;9.758;2022-10-31T07:13:54;18.80;;;9.70;;
5650;SDS011;40241;52.684;9.758;2022-10-31T07:16:20;28.40;;;10.40;;
5650;SDS011;40241;52.684;9.758;2022-10-31T07:18:46;24.20;;;10.40;;
5650;SDS011;40241;52.684;9.758;2022-10-31T07:21:11;21.47;;;10.73;;
5650;SDS011;40241;52.684;9.758;2022-10-31T07:23:36;16.13;;;9.63;;
5650;SDS011;40241;52.684;9.758;2022-10-31T07:26:02;20.20;;;11.27;;
5650;SDS011;40241;52.684;9.758;2022-10-31T07:28:28;16.93;;;11.20;;
5650;SDS011;40241;52.684;9.758;2022-10-31T07:30:54;20.40;;;10.87;;
5650;SDS011;40241;52.684;9.758;2022-10-31T07:33:21;21.13;;;10.53;;
5650;SDS011;40241;52.684;9.758;2022-10-31T07:35:47;22.60;;;11.40;;
5650;SDS011;40241;52.684;9.758;2022-10-31T07:38:13;20.53;;;10.77;;
5650;SDS011;40241;52.684;9.758;2022-10-31T07:40:39;19.20;;;10.53;;
5650;SDS011;40241;52.684;9.758;2022-10-31T07:43:06;18.10;;;10.50;;
5650;SDS011;40241;52.684;9.758;2022-10-31T07:45:31;22.67;;;11.57;;
5650;SDS011;40241;52.684;9.758;2022-10-31T07:47:56;22.43;;;11.53;;
5650;SDS011;40241;52.684;9.758;2022-10-31T07:50:23;22.97;;;12.03;;
5650;SDS011;40241;52.684;9.758;2022-10-31T07:53:08;17.53;;;11.13;;
5650;SDS011;40241;52.684;9.758;2022-10-31T07:55:36;19.40;;;11.47;;
5650;SDS011;40241;52.684;9.758;2022-10-31T07:58:03;26.80;;;10.67;;
5650;SDS011;40241;52.684;9.758;2022-10-31T08:00:30;17.30;;;11.20;;
5650;SDS011;40241;52.684;9.758;2022-10-31T08:03:10;17.93;;;10.80;;
5650;SDS011;40241;52.684;9.758;2022-10-31T08:05:38;22.13;;;10.80;;
5650;SDS011;40241;52.684;9.758;2022-10-31T08:08:04;20.80;;;10.47;;
5650;SDS011;40241;52.684;9.758;2022-10-31T08:10:30;23.93;;;9.97;;
5650;SDS011;40241;52.684;9.758;2022-10-31T08:12:57;13.20;;;10.33;;
5650;SDS011;40241;52.684;9.758;2022-10-31T08:15:27;26.77;;;11.47;;
5650;SDS011;40241;52.684;9.758;2022-10-31T08:17:53;20.60;;;10.60;;
5650;SDS011;40241;52.684;9.758;2022-10-31T08:20:19;15.73;;;10.37;;
5650;SDS011;40241;52.684;9.758;2022-10-31T08:22:58;19.23;;;11.60;;
5650;SDS011;40241;52.684;9.758;2022-10-31T08:25:26;13.37;;;10.00;;
5650;SDS011;40241;52.684;9.758;2022-10-31T08:27:53;14.53;;;10.40;;
5650;SDS011;40241;52.684;9.758;2022-10-31T08:30:20;18.20;;;11.90;;
5650;SDS011;40241;52.684;9.758;2022-10-31T08:32:47;12.60;;;10.07;;
5650;SDS011;40241;52.684;9.758;2022-10-31T08:35:13;13.40;;;11.30;;
5650;SDS011;40241;52.684;9.758;2022-10-31T08:37:39;14.10;;;11.10;;
5650;SDS011;40241;52.684;9.758;2022-10-31T08:40:04;16.40;;;10.47;;
5650;SDS011;40241;52.684;9.758;2022-10-31T08:42:31;13.37;;;11.00;;
5650;SDS011;40241;52.684;9.758;2022-10-31T08:44:57;17.20;;;11.87;;
5650;SDS011;40241;52.684;9.758;2022-10-31T08:47:22;21.10;;;11.80;;
5650;SDS011;40241;52.684;9.758;2022-10-31T08:49:48;20.30;;;12.33;;
5650;SDS011;40241;52.684;9.758;2022-10-31T08:52:13;16.00;;;12.60;;
5650;SDS011;40241;52.684;9.758;2022-10-31T08:54:39;14.77;;;12.30;;
5650;SDS011;40241;52.684;9.758;2022-10-31T08:57:05;19.10;;;13.00;;
5650;SDS011;40241;52.684;9.758;2022-10-31T08:59:30;24.83;;;13.40;;
5650;SDS011;40241;52.684;9.758;2022-10-31T09:01:56;19.00;;;11.77;;
5650;SDS011;40241;52.684;9.758;2022-10-31T09:04:21;18.00;;;12.17;;
5650;SDS011;40241;52.684;9.758;2022-10-31T09:06:47;18.40;;;12.10;;
5650;SDS011;40241;52.684;9.758;2022-10-31T09:09:12;22.17;;;14.40;;
5650;SDS011;40241;52.684;9.758;2022-10-31T09:11:37;21.47;;;14.00;;
5650;SDS011;40241;52.684;9.758;2022-10-31T09:14:03;19.17;;;14.20;;
5650;SDS011;40241;52.684;9.758;2022-10-31T09:16:28;30.33;;;13.27;;
5650;SDS011;40241;52.684;9.758;2022-10-31T09:18:53;22.13;;;13.97;;
5650;SDS011;40241;52.684;9.758;2022-10-31T09:21:19;23.57;;;14.67;;
5650;SDS011;40241;52.684;9.758;2022-10-31T09:23:44;23.63;;;15.40;;
5650;SDS011;40241;52.684;9.758;2022-10-31T09:26:10;23.00;;;16.20;;
5650;SDS011;40241;52.684;9.758;2022-10-31T09:28:35;26.07;;;15.17;;
5650;SDS011;40241;52.684;9.758;2022-10-31T09:31:01;27.67;;;15.30;;
5650;SDS011;40241;52.684;9.758;2022-10-31T09:33:26;22.30;;;15.87;;
5650;SDS011;40241;52.684;9.758;2022-10-31T09:35:52;24.57;;;16.23;;
5650;SDS011;40241;52.684;9.758;2022-10-31T09:38:18;26.10;;;16.27;;
5650;SDS011;40241;52.684;9.758;2022-10-31T09:40:49;24.40;;;15.87;;
5650;SDS011;40241;52.684;9.758;2022-10-31T09:46:23;24.03;;;14.80;;
5650;SDS011;40241;52.684;9.758;2022-10-31T09:49:31;27.63;;;16.77;;
5650;SDS011;40241;52.684;9.758;2022-10-31T09:52:28;22.90;;;14.90;;
5650;SDS011;40241;52.684;9.758;2022-10-31T09:55:13;25.07;;;15.33;;
5650;SDS011;40241;52.684;9.758;2022-10-31T09:57:43;24.63;;;14.97;;
5650;SDS011;40241;52.684;9.758;2022-10-31T10:00:17;26.27;;;16.50;;
5650;SDS011;40241;52.684;9.758;2022-10-31T10:05:45;30.57;;;16.07;;
5650;SDS011;40241;52.684;9.758;2022-10-31T10:08:32;26.10;;;15.13;;
5650;SDS011;40241;52.684;9.758;2022-10-31T10:16:51;30.00;;;17.43;;
5650;SDS011;40241;52.684;9.758;2022-10-31T10:19:56;28.60;;;17.70;;
5650;SDS011;40241;52.684;9.758;2022-10-31T10:25:38;32.87;;;17.57;;
5650;SDS011;40241;52.684;9.758;2022-10-31T10:30:44;35.20;;;17.90;;
5650;SDS011;40241;52.684;9.758;2022-10-31T10:35:41;30.90;;;18.00;;
5650;SDS011;40241;52.684;9.758;2022-10-31T10:40:47;26.67;;;16.50;;
5650;SDS011;40241;52.684;9.758;2022-10-31T10:54:45;26.40;;;17.03;;
5650;SDS011;40241;52.684;9.758;2022-10-31T10:57:36;29.53;;;16.13;;
5650;SDS011;40241;52.684;9.758;2022-10-31T11:00:24;30.33;;;15.87;;
5650;SDS011;40241;52.684;9.758;2022-10-31T11:02:51;29.27;;;16.67;;
5650;SDS011;40241;52.684;9.758;2022-10-31T11:05:22;31.77;;;17.80;;
5650;SDS011;40241;52.684;9.758;2022-10-31T11:08:02;35.40;;;16.87;;
5650;SDS011;40241;52.684;9.758;2022-10-31T11:10:28;29.10;;;16.57;;
5650;SDS011;40241;52.684;9.758;2022-10-31T11:15:49;29.87;;;16.40;;
5650;SDS011;40241;52.684;9.758;2022-10-31T11:18:21;25.87;;;15.00;;
5650;SDS011;40241;52.684;9.758;2022-10-31T11:20:53;28.00;;;14.30;;
5650;SDS011;40241;52.684;9.758;2022-10-31T11:23:21;29.70;;;15.57;;
5650;SDS011;40241;52.684;9.758;2022-10-31T11:25:54;27.33;;;15.07;;
5650;SDS011;40241;52.684;9.758;2022-10-31T11:28:29;29.77;;;14.83;;
5650;SDS011;40241;52.684;9.758;2022-10-31T11:31:12;28.53;;;14.70;;
5650;SDS011;40241;52.684;9.758;2022-10-31T11:36:16;29.23;;;15.80;;
5650;SDS011;40241;52.684;9.758;2022-10-31T11:38:47;25.87;;;14.50;;
5650;SDS011;40241;52.684;9.758;2022-10-31T11:41:17;32.20;;;15.20;;
5650;SDS011;40241;52.684;9.758;2022-10-31T11:43:50;25.97;;;14.17;;
5650;SDS011;40241;52.684;9.758;2022-10-31T11:46:40;27.37;;;13.57;;
5650;SDS011;40241;52.684;9.758;2022-10-31T11:49:17;23.70;;;14.67;;
5650;SDS011;40241;52.684;9.758;2022-10-31T11:52:13;28.70;;;14.57;;
5650;SDS011;40241;52.684;9.758;2022-10-31T12:05:53;25.07;;;12.70;;
5650;SDS011;40241;52.684;9.758;2022-10-31T12:08:21;31.80;;;14.43;;
5650;SDS011;40241;52.684;9.758;2022-10-31T12:18:55;23.70;;;12.70;;
5650;SDS011;40241;52.684;9.758;2022-10-31T12:21:34;25.30;;;14.00;;
5650;SDS011;40241;52.684;9.758;2022-10-31T12:24:17;20.93;;;11.87;;
5650;SDS011;40241;52.684;9.758;2022-10-31T12:32:31;27.60;;;12.33;;
5650;SDS011;40241;52.684;9.758;2022-10-31T12:37:48;19.67;;;11.53;;
5650;SDS011;40241;52.684;9.758;2022-10-31T12:40:33;20.13;;;12.63;;
5650;SDS011;40241;52.684;9.758;2022-10-31T12:43:20;20.03;;;10.67;;
5650;SDS011;40241;52.684;9.758;2022-10-31T12:45:57;22.13;;;11.90;;
5650;SDS011;40241;52.684;9.758;2022-10-31T12:48:41;18.90;;;11.07;;
5650;SDS011;40241;52.684;9.758;2022-10-31T13:07:20;15.07;;;9.37;;
5650;SDS011;40241;52.684;9.758;2022-10-31T13:10:02;20.13;;;9.93;;
5650;SDS011;40241;52.684;9.758;2022-10-31T13:12:32;16.97;;;9.37;;
5650;SDS011;40241;52.684;9.758;2022-10-31T13:17:55;16.77;;;9.47;;
5650;SDS011;40241;52.684;9.758;2022-10-31T13:22:53;17.63;;;8.50;;
5650;SDS011;40241;52.684;9.758;2022-10-31T13:27:54;18.67;;;9.20;;
5650;SDS011;40241;52.684;9.758;2022-10-31T13:30:32;19.23;;;8.80;;
5650;SDS011;40241;52.684;9.758;2022-10-31T13:33:21;15.67;;;9.00;;
5650;SDS011;40241;52.684;9.758;2022-10-31T13:38:49;16.33;;;7.30;;
5650;SDS011;40241;52.684;9.758;2022-10-31T13:41:39;15.63;;;9.10;;
5650;SDS011;40241;52.684;9.758;2022-10-31T13:46:39;11.97;;;7.30;;
5650;SDS011;40241;52.684;9.758;2022-10-31T13:57:01;15.53;;;8.37;;
5650;SDS011;40241;52.684;9.758;2022-10-31T13:59:30;14.37;;;7.90;;
5650;SDS011;40241;52.684;9.758;2022-10-31T14:02:00;16.43;;;8.93;;
5650;SDS011;40241;52.684;9.758;2022-10-31T14:04:32;17.13;;;10.00;;
5650;SDS011;40241;52.684;9.758;2022-10-31T14:09:38;16.70;;;10.33;;
5650;SDS011;40241;52.684;9.758;2022-10-31T14:15:00;10.87;;;8.00;;
5650;SDS011;40241;52.684;9.758;2022-10-31T14:17:45;11.20;;;8.10;;
5650;SDS011;40241;52.684;9.758;2022-10-31T14:22:39;12.63;;;8.10;;
5650;SDS011;40241;52.684;9.758;2022-10-31T14:27:53;17.90;;;6.47;;
5650;SDS011;40241;52.684;9.758;2022-10-31T14:30:20;12.33;;;6.33;;
5650;SDS011;40241;52.684;9.758;2022-10-31T14:32:49;11.13;;;5.70;;
5650;SDS011;40241;52.684;9.758;2022-10-31T14:35:20;11.13;;;5.73;;
5650;SDS011;40241;52.684;9.758;2022-10-31T14:38:16;10.40;;;5.30;;
5650;SDS011;40241;52.684;9.758;2022-10-31T14:41:05;9.77;;;5.63;;
5650;SDS011;40241;52.684;9.758;2022-10-31T14:49:16;10.07;;;6.13;;
5650;SDS011;40241;52.684;9.758;2022-10-31T14:51:59;13.13;;;5.77;;
5650;SDS011;40241;52.684;9.758;2022-10-31T14:57:04;6.50;;;5.13;;
5650;SDS011;40241;52.684;9.758;2022-10-31T14:59:33;8.47;;;6.13;;
5650;SDS011;40241;52.684;9.758;2022-10-31T15:02:14;7.47;;;5.07;;
5650;SDS011;40241;52.684;9.758;2022-10-31T15:04:45;6.53;;;4.87;;
5650;SDS011;40241;52.684;9.758;2022-10-31T15:07:20;7.97;;;5.60;;
5650;SDS011;40241;52.684;9.758;2022-10-31T15:10:01;9.00;;;5.20;;
5650;SDS011;40241;52.684;9.758;2022-10-31T15:14:58;6.53;;;5.40;;
5650;SDS011;40241;52.684;9.758;2022-10-31T15:17:41;6.53;;;4.37;;
5650;SDS011;40241;52.684;9.758;2022-10-31T15:20:12;10.83;;;5.20;;
5650;SDS011;40241;52.684;9.758;2022-10-31T15:22:44;7.50;;;4.50;;
5650;SDS011;40241;52.684;9.758;2022-10-31T15:25:17;8.07;;;4.90;;
5650;SDS011;40241;52.684;9.758;2022-10-31T15:27:45;9.20;;;4.53;;
5650;SDS011;40241;52.684;9.758;2022-10-31T15:30:16;6.37;;;4.80;;
5650;SDS011;40241;52.684;9.758;2022-10-31T15:32:49;11.70;;;5.27;;
5650;SDS011;40241;52.684;9.758;2022-10-31T15:35:28;9.00;;;5.60;;
5650;SDS011;40241;52.684;9.758;2022-10-31T15:37:56;9.97;;;4.87;;
5650;SDS011;40241;52.684;9.758;2022-10-31T15:40:23;6.20;;;4.43;;
5650;SDS011;40241;52.684;9.758;2022-10-31T15:43:10;10.93;;;5.13;;
5650;SDS011;40241;52.684;9.758;2022-10-31T15:45:41;5.43;;;4.27;;
5650;SDS011;40241;52.684;9.758;2022-10-31T15:48:15;8.20;;;4.70;;
5650;SDS011;40241;52.684;9.758;2022-10-31T15:50:47;10.20;;;4.70;;
5650;SDS011;40241;52.684;9.758;2022-10-31T15:53:58;5.73;;;4.40;;
5650;SDS011;40241;52.684;9.758;2022-10-31T15:56:11;6.93;;;4.80;;
5650;SDS011;40241;52.684;9.758;2022-10-31T15:58:45;6.60;;;4.50;;
5650;SDS011;40241;52.684;9.758;2022-10-31T16:01:24;6.53;;;4.77;;
5650;SDS011;40241;52.684;9.758;2022-10-31T16:06:35;8.90;;;5.27;;
5650;SDS011;40241;52.684;9.758;2022-10-31T16:09:00;9.43;;;4.40;;
5650;SDS011;40241;52.684;9.758;2022-10-31T16:11:34;8.00;;;5.47;;
5650;SDS011;40241;52.684;9.758;2022-10-31T16:14:17;12.20;;;5.93;;
5650;SDS011;40241;52.684;9.758;2022-10-31T16:16:48;10.83;;;5.20;;
5650;SDS011;40241;52.684;9.758;2022-10-31T16:21:48;9.40;;;5.50;;
5650;SDS011;40241;52.684;9.758;2022-10-31T16:26:57;11.53;;;7.30;;
5650;SDS011;40241;52.684;9.758;2022-10-31T16:32:22;8.43;;;5.87;;
5650;SDS011;40241;52.684;9.758;2022-10-31T16:37:24;7.40;;;5.50;;
5650;SDS011;40241;52.684;9.758;2022-10-31T16:39:49;7.93;;;5.60;;
5650;SDS011;40241;52.684;9.758;2022-10-31T16:42:14;10.87;;;5.40;;
5650;SDS011;40241;52.684;9.758;2022-10-31T16:44:40;9.60;;;5.97;;
5650;SDS011;40241;52.684;9.758;2022-10-31T16:47:13;12.13;;;6.30;;
5650;SDS011;40241;52.684;9.758;2022-10-31T16:49:40;11.97;;;5.37;;
5650;SDS011;40241;52.684;9.758;2022-10-31T16:52:07;7.57;;;4.93;;
5650;SDS011;40241;52.684;9.758;2022-10-31T16:54:32;11.40;;;6.60;;
5650;SDS011;40241;52.684;9.758;2022-10-31T16:56:59;10.77;;;6.47;;
5650;SDS011;40241;52.684;9.758;2022-10-31T16:59:27;10.40;;;6.50;;
5650;SDS011;40241;52.684;9.758;2022-10-31T17:01:54;10.93;;;6.10;;
5650;SDS011;40241;52.684;9.758;2022-10-31T17:04:20;11.00;;;6.50;;
5650;SDS011;40241;52.684;9.758;2022-10-31T17:06:46;12.87;;;6.17;;
5650;SDS011;40241;52.684;9.758;2022-10-31T17:09:11;10.33;;;5.87;;
5650;SDS011;40241;52.684;9.758;2022-10-31T17:11:39;10.97;;;6.27;;
5650;SDS011;40241;52.684;9.758;2022-10-31T17:14:11;7.90;;;5.20;;
5650;SDS011;40241;52.684;9.758;2022-10-31T17:16:37;9.97;;;6.43;;
5650;SDS011;40241;52.684;9.758;2022-10-31T17:19:02;8.50;;;5.63;;
5650;SDS011;40241;52.684;9.758;2022-10-31T17:21:28;8.63;;;6.03;;
5650;SDS011;40241;52.684;9.758;2022-10-31T17:23:55;10.17;;;6.10;;
5650;SDS011;40241;52.684;9.758;2022-10-31T17:26:20;11.00;;;6.67;;
5650;SDS011;40241;52.684;9.758;2022-10-31T17:28:46;9.03;;;7.10;;
5650;SDS011;40241;52.684;9.758;2022-10-31T17:31:21;11.77;;;6.80;;
5650;SDS011;40241;52.684;9.758;2022-10-31T17:33:53;12.27;;;6.20;;
5650;SDS011;40241;52.684;9.758;2022-10-31T17:36:19;13.00;;;7.60;;
5650;SDS011;40241;52.684;9.758;2022-10-31T17:38:44;9.53;;;6.57;;
5650;SDS011;40241;52.684;9.758;2022-10-31T17:41:10;10.00;;;6.57;;
5650;SDS011;40241;52.684;9.758;2022-10-31T17:43:35;11.90;;;6.33;;
5650;SDS011;40241;52.684;9.758;2022-10-31T17:46:00;11.37;;;6.20;;
5650;SDS011;40241;52.684;9.758;2022-10-31T17:48:26;8.17;;;5.47;;
5650;SDS011;40241;52.684;9.758;2022-10-31T17:50:53;12.37;;;7.37;;